createdAt,value
2022-10-12T05:32:40.134Z,61.16
2022-10-12T05:38:01.540Z,61.03
2022-10-12T05:43:22.563Z,60.96
2022-10-12T05:48:43.289Z,61.03
2022-10-12T05:54:04.786Z,60.97
2022-10-12T05:59:25.596Z,60.63
2022-10-12T06:04:46.407Z,60.62
2022-10-12T06:10:08.191Z,60.35
2022-10-12T06:15:29.252Z,60.71
2022-10-12T06:21:04.007Z,60.36
2022-10-12T06:26:34.873Z,60.69
2022-10-12T06:31:55.678Z,60.53
2022-10-12T06:37:44.550Z,60.45
2022-10-12T06:43:02.526Z,60.36
2022-10-12T06:48:23.474Z,60.65
2022-10-12T06:53:44.324Z,59.85
2022-10-12T06:59:06.002Z,59.40
2022-10-12T07:04:26.489Z,58.94
2022-10-12T07:09:48.986Z,58.72
2022-10-12T07:15:10.082Z,58.01
2022-10-12T07:20:30.937Z,57.42
2022-10-12T07:25:52.630Z,56.72
2022-10-12T07:31:14.010Z,56.23
2022-10-12T07:36:57.624Z,55.61
2022-10-12T07:42:19.092Z,55.07
2022-10-12T07:47:41.038Z,54.42
2022-10-12T07:53:02.223Z,53.80
2022-10-12T07:58:22.870Z,53.42
2022-10-12T08:03:43.874Z,53.38
2022-10-12T08:09:05.510Z,52.96
2022-10-12T08:14:26.685Z,52.61
2022-10-12T08:19:47.576Z,51.98
2022-10-12T08:25:08.598Z,51.72
2022-10-12T08:30:29.763Z,51.94
2022-10-12T08:35:50.512Z,54.14
2022-10-12T08:41:29.031Z,55.07
2022-10-12T08:46:55.805Z,36.63
2022-10-12T08:52:38.125Z,21.45
2022-10-12T08:57:59.093Z,22.60
2022-10-12T09:03:58.273Z,15.41
2022-10-12T09:09:58.422Z,15.27
2022-10-12T09:15:26.788Z,14.95
2022-10-12T09:20:49.867Z,16.68
2022-10-12T09:26:21.477Z,15.08
2022-10-12T09:32:00.802Z,16.22
2022-10-12T09:37:24.724Z,19.83
2022-10-12T09:42:47.090Z,25.50
2022-10-12T09:48:23.956Z,28.70
2022-10-12T09:53:49.976Z,31.05
2022-10-12T09:59:28.156Z,32.35
2022-10-12T10:04:51.167Z,33.92
2022-10-12T10:10:29.708Z,34.72
2022-10-12T10:16:01.827Z,36.02
2022-10-12T10:21:35.322Z,34.79
2022-10-12T10:27:03.494Z,35.49
2022-10-12T10:32:28.980Z,36.23
2022-10-12T10:37:51.535Z,36.55
2022-10-12T10:43:32.202Z,36.90
2022-10-12T10:48:58.530Z,37.71
2022-10-12T10:54:22.273Z,38.01
2022-10-12T10:59:55.435Z,37.64
2022-10-12T11:05:32.336Z,38.17
2022-10-12T11:10:59.273Z,39.13
2022-10-12T11:16:33.642Z,38.89
2022-10-12T11:21:59.249Z,39.12
2022-10-12T11:27:40.382Z,39.09
2022-10-12T11:33:03.570Z,38.76
2022-10-12T11:38:30.413Z,39.29
2022-10-12T11:44:17.684Z,38.85
2022-10-12T11:49:58.626Z,37.98
2022-10-12T11:55:25.417Z,38.46
2022-10-12T12:01:07.738Z,37.56
2022-10-12T12:06:28.791Z,38.03
2022-10-12T12:11:49.625Z,38.15
2022-10-12T12:17:19.449Z,37.86
2022-10-12T12:22:53.190Z,38.39
2022-10-12T12:28:24.271Z,37.96
2022-10-12T12:33:48.550Z,38.37
2022-10-12T12:39:26.376Z,37.19
2022-10-12T12:44:47.358Z,37.91
2022-10-12T12:50:31.583Z,36.92
2022-10-12T12:56:04.676Z,37.89
2022-10-12T13:01:39.064Z,37.44
2022-10-12T13:07:33.861Z,36.33
2022-10-12T13:13:44.086Z,37.49
2022-10-12T13:19:11.145Z,39.10
2022-10-12T13:24:38.607Z,39.26
2022-10-12T13:30:06.786Z,38.77
2022-10-12T13:35:41.370Z,37.88
2022-10-12T13:41:04.872Z,38.52
2022-10-12T13:46:46.247Z,38.69
2022-10-12T13:52:13.019Z,39.66
2022-10-12T13:57:41.306Z,40.53
2022-10-12T14:03:08.567Z,41.48
2022-10-12T14:08:31.406Z,42.30
2022-10-12T14:13:53.091Z,42.64
2022-10-12T14:19:19.249Z,42.76
2022-10-12T14:24:40.473Z,43.14
2022-10-12T14:30:15.979Z,43.45
2022-10-12T14:35:38.871Z,43.52
2022-10-12T14:41:38.539Z,43.27
2022-10-12T14:47:16.754Z,43.50
2022-10-12T14:52:42.654Z,43.63
2022-10-12T14:58:08.127Z,43.45
2022-10-12T15:03:30.006Z,43.32
2022-10-12T15:08:52.481Z,43.90
2022-10-12T15:14:14.443Z,43.62
2022-10-12T15:19:35.364Z,43.68
2022-10-12T15:24:56.285Z,43.96
2022-10-12T15:30:17.455Z,44.16
2022-10-12T15:35:39.597Z,44.30
2022-10-12T15:41:00.540Z,45.21
2022-10-12T15:46:21.259Z,45.39
2022-10-12T15:51:47.303Z,45.74
2022-10-12T15:57:09.457Z,46.51
2022-10-12T16:02:30.500Z,46.80
2022-10-12T16:07:51.868Z,47.19
2022-10-12T16:13:13.837Z,47.49
2022-10-12T16:18:34.840Z,47.61
2022-10-12T16:23:55.618Z,48.18
2022-10-12T16:29:16.475Z,48.55
2022-10-12T16:34:37.170Z,49.34
2022-10-12T16:39:58.087Z,49.39
2022-10-12T16:45:19.288Z,49.56
2022-10-12T16:50:40.855Z,49.80
2022-10-12T16:56:02.365Z,49.55
2022-10-12T17:01:23.556Z,50.37
2022-10-12T17:06:44.255Z,50.41
2022-10-12T17:12:05.065Z,50.98
2022-10-12T17:17:25.875Z,50.51
2022-10-12T17:22:46.731Z,51.08
2022-10-12T17:28:07.522Z,50.66
2022-10-12T17:33:28.303Z,51.61
2022-10-12T17:38:49.257Z,51.85
2022-10-12T17:44:13.412Z,51.71
2022-10-12T17:49:34.531Z,51.36
2022-10-12T17:54:55.411Z,52.47
2022-10-12T18:00:16.749Z,52.12
2022-10-12T18:05:37.721Z,52.53
2022-10-12T18:11:02.360Z,53.00
2022-10-12T18:16:25.703Z,52.08
2022-10-12T18:21:46.713Z,52.52
2022-10-12T18:27:07.599Z,52.28
2022-10-12T18:32:28.328Z,52.59
2022-10-12T18:37:49.194Z,53.57
2022-10-12T18:43:10.479Z,53.57
2022-10-12T18:48:31.333Z,53.71
2022-10-12T18:53:52.261Z,52.89
2022-10-12T18:59:13.352Z,53.63
2022-10-12T19:04:34.392Z,53.68
2022-10-12T19:09:55.293Z,54.07
2022-10-12T19:15:16.430Z,53.74
2022-10-12T19:20:38.256Z,53.94
2022-10-12T19:26:04.250Z,54.38
2022-10-12T19:31:31.040Z,53.72
2022-10-12T19:36:51.893Z,53.95
2022-10-12T19:42:12.861Z,54.09
2022-10-12T19:47:34.819Z,54.88
2022-10-12T19:52:55.784Z,54.26
2022-10-12T19:58:16.891Z,54.43
2022-10-12T20:03:38.300Z,54.29
2022-10-12T20:09:01.971Z,54.75
2022-10-12T20:14:23.359Z,54.98
2022-10-12T20:19:44.300Z,55.14
2022-10-12T20:25:09.421Z,54.68
2022-10-12T20:30:30.560Z,54.99
2022-10-12T20:35:51.439Z,55.12
2022-10-12T20:41:13.801Z,55.00
2022-10-12T20:46:34.845Z,55.03
2022-10-12T20:51:55.684Z,55.56
2022-10-12T20:57:16.234Z,55.54
2022-10-12T21:02:40.384Z,55.21
2022-10-12T21:08:01.201Z,55.17
2022-10-12T21:13:22.070Z,55.80
2022-10-12T21:18:43.051Z,55.46
2022-10-12T21:24:04.361Z,55.37
2022-10-12T21:29:25.053Z,55.38
2022-10-12T21:34:47.502Z,55.87
2022-10-12T21:40:09.944Z,56.04
2022-10-12T21:45:31.053Z,55.64
2022-10-12T21:50:56.158Z,56.19
2022-10-12T21:56:16.998Z,56.06
